createdAt,value
2022-11-17T00:00:41.920Z,6.03
2022-11-17T00:03:13.570Z,4.18
2022-11-17T00:05:40.412Z,5.30
2022-11-17T00:08:07.103Z,5.78
2022-11-17T00:10:33.956Z,4.95
2022-11-17T00:13:19.136Z,5.13
2022-11-17T00:15:45.927Z,4.90
2022-11-17T00:18:31.340Z,6.50
2022-11-17T00:21:16.664Z,6.65
2022-11-17T00:23:50.834Z,6.60
2022-11-17T00:26:25.732Z,5.65
2022-11-17T00:29:00.448Z,5.88
2022-11-17T00:31:47.700Z,5.55
2022-11-17T00:34:23.952Z,3.38
2022-11-17T00:36:53.526Z,3.92
2022-11-17T00:39:22.920Z,4.45
2022-11-17T00:41:50.290Z,4.85
2022-11-17T00:44:17.868Z,3.95
2022-11-17T00:46:44.660Z,4.10
2022-11-17T00:49:12.147Z,3.90
2022-11-17T00:51:38.941Z,4.20
2022-11-17T00:54:07.326Z,4.35
2022-11-17T00:56:34.230Z,3.33
2022-11-17T00:59:01.188Z,4.20
2022-11-17T01:01:28.233Z,3.38
2022-11-17T01:04:03.610Z,3.90
2022-11-17T01:06:33.840Z,3.83
2022-11-17T01:09:02.617Z,3.97
2022-11-17T01:11:29.955Z,3.10
2022-11-17T01:13:59.056Z,3.83
2022-11-17T01:16:26.794Z,3.53
2022-11-17T01:18:54.017Z,3.83
2022-11-17T01:21:24.106Z,3.13
2022-11-17T01:23:53.805Z,3.65
2022-11-17T01:26:29.369Z,4.07
2022-11-17T01:28:57.105Z,3.25
2022-11-17T01:31:29.628Z,5.75
2022-11-17T01:33:57.314Z,4.68
2022-11-17T01:36:27.476Z,3.85
2022-11-17T01:38:54.972Z,6.43
2022-11-17T01:41:27.596Z,3.80
2022-11-17T01:43:59.472Z,4.65
2022-11-17T01:46:26.105Z,4.10
2022-11-17T01:48:57.779Z,3.63
2022-11-17T01:51:25.451Z,4.28
2022-11-17T01:53:52.743Z,4.90
2022-11-17T01:56:27.175Z,5.57
2022-11-17T01:59:01.083Z,4.07
2022-11-17T02:01:27.955Z,3.97
2022-11-17T02:03:54.832Z,3.63
2022-11-17T02:06:35.457Z,3.42
2022-11-17T02:09:04.625Z,4.30
2022-11-17T02:11:36.208Z,4.00
2022-11-17T02:14:05.565Z,4.75
2022-11-17T02:16:32.438Z,4.75
2022-11-17T02:18:59.301Z,6.45
2022-11-17T02:21:50.547Z,5.88
2022-11-17T02:24:31.756Z,5.47
2022-11-17T02:27:23.076Z,5.78
2022-11-17T02:30:06.583Z,5.57
2022-11-17T02:35:44.047Z,6.13
2022-11-17T02:38:10.616Z,5.30
2022-11-17T02:41:08.176Z,6.75
2022-11-17T02:44:02.286Z,6.65
2022-11-17T02:46:32.255Z,5.68
2022-11-17T02:49:05.174Z,6.78
2022-11-17T02:51:34.804Z,6.25
2022-11-17T02:54:02.254Z,6.20
2022-11-17T02:56:28.944Z,8.32
2022-11-17T02:59:00.635Z,7.18
2022-11-17T03:01:39.287Z,7.38
2022-11-17T03:04:22.419Z,6.65
2022-11-17T03:06:52.461Z,6.55
2022-11-17T03:09:30.421Z,6.72
2022-11-17T03:12:09.296Z,7.50
2022-11-17T03:15:09.088Z,6.82
2022-11-17T03:17:58.264Z,6.45
2022-11-17T03:20:31.366Z,7.25
2022-11-17T03:23:18.237Z,6.57
2022-11-17T03:25:53.341Z,7.07
2022-11-17T03:28:26.056Z,8.45
2022-11-17T03:30:54.204Z,8.20
2022-11-17T03:33:24.879Z,7.97
2022-11-17T03:36:05.478Z,8.90
2022-11-17T03:38:37.497Z,7.75
2022-11-17T03:41:08.088Z,7.00
2022-11-17T03:43:36.335Z,11.00
2022-11-17T03:46:08.815Z,9.77
2022-11-17T03:48:42.862Z,9.10
2022-11-17T03:51:19.158Z,7.97
2022-11-17T03:53:47.713Z,9.23
2022-11-17T03:56:39.846Z,9.02
2022-11-17T03:59:22.682Z,7.65
2022-11-17T04:01:49.468Z,9.80
2022-11-17T04:04:18.199Z,10.55
2022-11-17T04:06:44.885Z,8.68
2022-11-17T04:09:11.613Z,8.70
2022-11-17T04:11:57.272Z,8.75
2022-11-17T04:14:42.532Z,7.63
2022-11-17T04:17:09.301Z,9.07
2022-11-17T04:19:35.982Z,9.55
2022-11-17T04:22:02.605Z,7.68
2022-11-17T04:24:29.424Z,8.27
2022-11-17T04:27:14.996Z,8.77
2022-11-17T04:29:41.667Z,8.38
2022-11-17T04:32:08.315Z,9.25
2022-11-17T04:34:35.028Z,8.93
2022-11-17T04:37:06.927Z,7.78
2022-11-17T04:42:04.973Z,7.72
2022-11-17T04:44:32.336Z,8.18
2022-11-17T04:46:59.660Z,8.23
2022-11-17T04:49:26.313Z,7.53
2022-11-17T04:51:54.142Z,7.05
2022-11-17T04:54:24.790Z,8.38
2022-11-17T04:56:52.783Z,7.03
2022-11-17T04:59:19.771Z,9.20
2022-11-17T05:01:47.107Z,9.27
2022-11-17T05:04:35.813Z,6.88
2022-11-17T05:07:02.769Z,6.70
2022-11-17T05:09:29.426Z,8.70
2022-11-17T05:12:14.532Z,7.65
2022-11-17T05:14:41.199Z,7.15
2022-11-17T05:17:11.819Z,7.90
2022-11-17T05:19:44.535Z,9.23
2022-11-17T05:22:31.790Z,9.35
2022-11-17T05:24:58.481Z,9.32
2022-11-17T05:27:26.239Z,7.68
2022-11-17T05:29:53.100Z,8.07
2022-11-17T05:32:19.878Z,8.15
2022-11-17T05:34:46.603Z,8.13
2022-11-17T05:37:13.527Z,7.80
2022-11-17T05:39:40.253Z,7.10
2022-11-17T05:42:07.072Z,7.28
2022-11-17T05:44:33.923Z,9.70
2022-11-17T05:47:00.591Z,8.75
2022-11-17T05:49:27.236Z,7.80
2022-11-17T05:51:53.881Z,7.07
2022-11-17T05:54:20.722Z,7.20
2022-11-17T05:56:55.650Z,7.38
2022-11-17T05:59:36.656Z,7.93
2022-11-17T06:02:08.624Z,6.65
2022-11-17T06:04:35.601Z,8.40
2022-11-17T06:07:02.886Z,7.07
2022-11-17T06:09:33.231Z,6.38
2022-11-17T06:12:05.641Z,6.88
2022-11-17T06:14:33.169Z,10.35
2022-11-17T06:17:09.574Z,8.38
2022-11-17T06:19:43.963Z,5.15
2022-11-17T06:22:12.767Z,5.47
2022-11-17T06:24:43.067Z,6.65
2022-11-17T06:27:14.624Z,7.30
2022-11-17T06:29:44.914Z,7.30
2022-11-17T06:32:17.738Z,6.82
2022-11-17T06:34:51.924Z,6.43
2022-11-17T06:37:22.059Z,6.85
2022-11-17T06:39:48.858Z,8.35
2022-11-17T06:42:15.561Z,7.13
2022-11-17T06:44:42.398Z,8.73
2022-11-17T06:47:09.084Z,7.07
2022-11-17T06:49:35.838Z,7.38
2022-11-17T06:52:02.571Z,7.28
2022-11-17T06:54:29.406Z,8.05
2022-11-17T06:56:56.173Z,7.40
2022-11-17T06:59:23.013Z,9.35
2022-11-17T07:01:50.105Z,6.80
2022-11-17T07:04:17.086Z,7.38
2022-11-17T07:06:43.878Z,8.25
2022-11-17T07:09:10.620Z,7.00
2022-11-17T07:11:37.665Z,6.10
2022-11-17T07:14:04.452Z,8.13
2022-11-17T07:16:32.781Z,7.15
2022-11-17T07:18:59.975Z,8.20
2022-11-17T07:21:26.797Z,7.82
2022-11-17T07:23:53.612Z,7.00
2022-11-17T07:26:20.491Z,6.63
2022-11-17T07:28:47.332Z,5.72
2022-11-17T07:31:14.314Z,8.27
2022-11-17T07:33:41.455Z,6.97
2022-11-17T07:36:11.642Z,6.47
2022-11-17T07:38:40.556Z,8.02
2022-11-17T07:41:09.914Z,7.63
2022-11-17T07:43:37.382Z,6.40
2022-11-17T07:46:05.814Z,6.35
2022-11-17T07:48:33.567Z,8.63
2022-11-17T07:51:01.436Z,7.50
2022-11-17T07:53:29.034Z,7.10
2022-11-17T07:55:56.135Z,6.22
2022-11-17T07:58:25.477Z,6.50
2022-11-17T08:00:52.325Z,6.40
2022-11-17T08:03:19.174Z,5.60
2022-11-17T08:05:46.024Z,6.07
2022-11-17T08:08:13.719Z,5.85
2022-11-17T08:10:40.902Z,5.88
2022-11-17T08:13:07.838Z,8.20
2022-11-17T08:15:34.983Z,5.70
2022-11-17T08:18:03.378Z,7.18
2022-11-17T08:20:30.452Z,6.60
2022-11-17T08:22:57.541Z,5.65
2022-11-17T08:25:26.933Z,6.18
2022-11-17T08:27:58.257Z,5.63
2022-11-17T08:30:25.919Z,5.30
2022-11-17T08:32:54.671Z,6.05
2022-11-17T08:35:25.704Z,5.78
2022-11-17T08:37:53.341Z,5.65
2022-11-17T08:40:20.316Z,7.15
2022-11-17T08:42:57.521Z,5.68
2022-11-17T08:45:27.412Z,5.32
2022-11-17T08:47:55.658Z,6.03
2022-11-17T08:50:22.434Z,6.82
2022-11-17T08:52:49.285Z,7.10
2022-11-17T08:55:16.107Z,5.85
2022-11-17T08:57:42.866Z,7.75
2022-11-17T09:00:10.617Z,7.82
2022-11-17T09:02:38.238Z,7.68
2022-11-17T09:05:05.600Z,8.02
2022-11-17T09:07:35.834Z,8.85
2022-11-17T09:10:04.432Z,8.57
2022-11-17T09:12:31.160Z,6.80
2022-11-17T09:14:57.858Z,6.78
2022-11-17T09:17:24.574Z,7.47
2022-11-17T09:19:51.411Z,6.20
2022-11-17T09:22:18.209Z,7.13
2022-11-17T09:24:44.862Z,7.10
2022-11-17T09:27:11.672Z,6.40
2022-11-17T09:29:38.351Z,6.95
2022-11-17T09:32:05.340Z,7.88
2022-11-17T09:34:32.181Z,6.78
2022-11-17T09:36:58.986Z,6.57
2022-11-17T09:39:25.720Z,6.28
2022-11-17T09:41:55.090Z,9.52
2022-11-17T09:44:27.879Z,9.40
2022-11-17T09:46:57.569Z,10.90
2022-11-17T09:49:56.945Z,7.53
2022-11-17T09:52:59.239Z,9.82
2022-11-17T09:55:35.866Z,8.65
2022-11-17T09:58:14.470Z,7.97
2022-11-17T10:00:43.760Z,8.20
2022-11-17T10:03:20.043Z,9.50
2022-11-17T10:05:48.087Z,7.15
2022-11-17T10:08:47.390Z,9.82
2022-11-17T10:11:35.317Z,7.88
2022-11-17T10:14:08.194Z,7.07
2022-11-17T10:16:36.973Z,7.03
2022-11-17T10:19:34.683Z,6.85
2022-11-17T10:22:05.113Z,6.93
2022-11-17T10:24:35.014Z,7.80
2022-11-17T10:27:24.749Z,8.93
2022-11-17T10:30:20.675Z,8.02
2022-11-17T10:32:55.708Z,7.60
2022-11-17T10:35:25.213Z,6.88
2022-11-17T10:38:20.950Z,8.23
2022-11-17T10:40:50.762Z,7.47
2022-11-17T10:43:35.141Z,9.50
2022-11-17T10:46:15.852Z,8.75
2022-11-17T10:49:05.168Z,9.35
2022-11-17T10:51:33.865Z,10.15
2022-11-17T10:54:15.956Z,9.52
2022-11-17T10:56:49.893Z,6.93
2022-11-17T10:59:30.429Z,7.30
2022-11-17T11:01:58.339Z,6.65
2022-11-17T11:04:42.093Z,8.48
2022-11-17T11:07:28.690Z,8.07
2022-11-17T11:10:18.218Z,6.97
2022-11-17T11:12:51.187Z,6.63
2022-11-17T11:15:22.887Z,35.28
2022-11-17T11:17:50.961Z,46.33
2022-11-17T11:20:31.329Z,23.52
2022-11-17T11:23:09.884Z,27.77
2022-11-17T11:25:50.963Z,34.33
2022-11-17T11:28:38.095Z,27.55
2022-11-17T11:31:46.983Z,41.97
2022-11-17T11:34:45.255Z,31.00
2022-11-17T11:37:13.672Z,19.15
2022-11-17T11:40:10.524Z,22.00
2022-11-17T11:42:56.586Z,32.92
2022-11-17T11:45:36.771Z,41.08
2022-11-17T11:48:12.996Z,23.88
2022-11-17T11:50:51.628Z,54.53
2022-11-17T11:53:31.031Z,19.92
2022-11-17T11:56:12.294Z,13.18
2022-11-17T11:58:46.754Z,15.10
2022-11-17T12:01:17.309Z,9.55
2022-11-17T12:04:16.458Z,23.33
2022-11-17T12:07:14.066Z,20.08
2022-11-17T12:09:55.713Z,18.88
2022-11-17T12:12:35.710Z,17.27
2022-11-17T12:15:21.115Z,14.10
2022-11-17T12:18:09.452Z,10.02
2022-11-17T12:20:47.478Z,4.88
2022-11-17T12:23:29.376Z,6.70
2022-11-17T12:25:58.440Z,10.73
2022-11-17T12:28:41.973Z,11.43
2022-11-17T12:33:54.030Z,12.07
2022-11-17T12:36:29.843Z,7.75
2022-11-17T12:39:18.059Z,7.75
2022-11-17T12:41:54.561Z,10.70
2022-11-17T12:44:44.261Z,6.72
2022-11-17T12:47:17.156Z,8.15
2022-11-17T12:49:51.048Z,11.70
2022-11-17T12:52:46.686Z,7.57
2022-11-17T12:55:24.337Z,7.65
2022-11-17T12:57:59.319Z,13.50
2022-11-17T13:00:28.801Z,9.48
2022-11-17T13:03:11.860Z,18.02
2022-11-17T13:05:38.616Z,7.95
2022-11-17T13:08:18.733Z,8.20
2022-11-17T13:10:45.370Z,12.30
2022-11-17T13:13:21.666Z,7.45
2022-11-17T13:15:54.568Z,7.88
2022-11-17T13:18:38.253Z,9.57
2022-11-17T13:21:17.682Z,7.88
2022-11-17T13:23:45.429Z,14.52
2022-11-17T13:26:21.853Z,9.32
2022-11-17T13:29:01.901Z,14.10
2022-11-17T13:31:28.941Z,7.68
2022-11-17T13:34:10.329Z,14.45
2022-11-17T13:36:37.193Z,11.88
2022-11-17T13:39:03.982Z,13.98
2022-11-17T13:41:40.159Z,8.07
2022-11-17T13:44:12.772Z,17.25
2022-11-17T13:46:39.768Z,17.45
2022-11-17T13:49:32.640Z,15.13
2022-11-17T13:51:59.553Z,14.07
2022-11-17T13:54:26.515Z,7.15
2022-11-17T13:57:25.983Z,10.32
2022-11-17T13:59:53.832Z,9.30
2022-11-17T14:02:20.511Z,7.78
2022-11-17T14:05:13.425Z,10.80
2022-11-17T14:07:41.708Z,9.80
2022-11-17T14:10:20.342Z,14.20
2022-11-17T14:12:48.678Z,14.43
2022-11-17T14:15:42.111Z,11.43
2022-11-17T14:18:29.680Z,9.35
2022-11-17T14:21:11.635Z,9.77
2022-11-17T14:23:38.929Z,9.38
2022-11-17T14:26:06.361Z,10.52
2022-11-17T14:28:33.202Z,13.68
2022-11-17T14:31:00.112Z,14.07
2022-11-17T14:33:28.165Z,9.55
2022-11-17T14:35:58.516Z,15.70
2022-11-17T14:38:25.719Z,15.57
2022-11-17T14:40:53.338Z,10.90
2022-11-17T14:43:21.454Z,10.80
2022-11-17T14:45:49.019Z,9.77
2022-11-17T14:48:19.258Z,11.90
2022-11-17T14:50:47.431Z,9.95
2022-11-17T14:53:14.374Z,15.63
2022-11-17T14:55:41.020Z,14.80
2022-11-17T14:58:07.855Z,9.63
2022-11-17T15:00:34.558Z,8.40
2022-11-17T15:03:01.358Z,7.38
2022-11-17T15:05:28.252Z,10.00
2022-11-17T15:07:56.742Z,10.68
2022-11-17T15:10:23.898Z,10.38
2022-11-17T15:12:50.773Z,10.20
2022-11-17T15:15:18.244Z,9.25
2022-11-17T15:17:45.043Z,9.60
2022-11-17T15:20:12.109Z,8.85
2022-11-17T15:22:39.016Z,9.13
2022-11-17T15:25:06.278Z,10.15
2022-11-17T15:27:32.961Z,9.57
2022-11-17T15:29:59.714Z,9.05
2022-11-17T15:32:26.450Z,7.45
2022-11-17T15:34:53.178Z,8.40
2022-11-17T15:37:19.862Z,8.48
2022-11-17T15:39:46.558Z,8.40
2022-11-17T15:42:13.248Z,6.00
2022-11-17T15:44:40.011Z,10.15
2022-11-17T15:47:06.758Z,10.23
2022-11-17T15:49:33.432Z,7.88
2022-11-17T15:52:00.170Z,12.07
2022-11-17T15:54:26.962Z,10.15
2022-11-17T15:56:53.747Z,9.52
2022-11-17T15:59:20.791Z,8.95
2022-11-17T16:01:47.820Z,9.77
2022-11-17T16:04:18.424Z,9.43
2022-11-17T16:06:46.682Z,11.30
2022-11-17T16:09:14.832Z,5.53
2022-11-17T16:11:42.007Z,7.43
2022-11-17T16:14:09.377Z,6.30
2022-11-17T16:16:38.106Z,5.75
2022-11-17T16:19:05.643Z,6.03
2022-11-17T16:21:32.408Z,6.95
2022-11-17T16:24:00.937Z,6.88
2022-11-17T16:26:28.920Z,7.43
2022-11-17T16:29:06.823Z,6.90
2022-11-17T16:31:35.954Z,7.35
2022-11-17T16:34:05.802Z,9.68
2022-11-17T16:36:36.830Z,7.70
2022-11-17T16:39:06.327Z,6.03
2022-11-17T16:41:35.771Z,8.10
2022-11-17T16:44:06.206Z,7.35
2022-11-17T16:46:32.933Z,6.68
2022-11-17T16:49:06.030Z,7.50
2022-11-17T16:51:33.422Z,8.38
2022-11-17T16:54:02.967Z,8.77
2022-11-17T16:56:30.251Z,7.28
2022-11-17T16:58:57.470Z,18.38
2022-11-17T17:01:27.011Z,18.77
2022-11-17T17:03:58.646Z,19.80
2022-11-17T17:06:26.326Z,8.10
2022-11-17T17:08:58.083Z,31.33
2022-11-17T17:11:25.223Z,24.23
2022-11-17T17:13:51.875Z,14.80
2022-11-17T17:16:20.243Z,11.98
2022-11-17T17:18:46.915Z,11.98
2022-11-17T17:21:17.483Z,8.13
2022-11-17T17:23:45.792Z,8.05
2022-11-17T17:26:16.732Z,7.45
2022-11-17T17:28:45.280Z,8.98
2022-11-17T17:31:20.760Z,8.98
2022-11-17T17:33:48.440Z,8.57
2022-11-17T17:36:18.023Z,7.32
2022-11-17T17:38:48.839Z,10.85
2022-11-17T17:41:19.778Z,13.23
2022-11-17T17:43:47.518Z,10.35
2022-11-17T17:46:17.455Z,6.82
2022-11-17T17:48:45.554Z,7.70
2022-11-17T17:51:18.638Z,6.43
2022-11-17T17:53:45.691Z,6.35
2022-11-17T17:56:14.022Z,7.65
2022-11-17T17:58:41.517Z,5.40
2022-11-17T18:01:19.831Z,6.35
2022-11-17T18:03:48.302Z,6.80
2022-11-17T18:06:16.887Z,7.70
2022-11-17T18:08:43.835Z,5.70
2022-11-17T18:11:13.413Z,6.15
2022-11-17T18:13:42.549Z,7.28
2022-11-17T18:16:12.058Z,7.03
2022-11-17T18:18:39.355Z,7.53
2022-11-17T18:21:08.681Z,7.20
2022-11-17T18:23:36.013Z,7.53
2022-11-17T18:26:10.693Z,7.28
2022-11-17T18:28:39.580Z,6.15
2022-11-17T18:31:08.092Z,8.95
2022-11-17T18:33:35.542Z,6.75
2022-11-17T18:36:07.161Z,8.32
2022-11-17T18:38:36.068Z,36.85
2022-11-17T18:41:08.495Z,20.85
2022-11-17T18:43:36.361Z,20.80
2022-11-17T18:46:08.892Z,10.90
2022-11-17T18:48:37.507Z,14.30
2022-11-17T18:51:22.245Z,15.52
2022-11-17T18:53:50.343Z,9.35
2022-11-17T18:56:20.091Z,13.85
2022-11-17T18:58:47.227Z,8.57
2022-11-17T19:01:18.707Z,6.05
2022-11-17T19:03:48.376Z,6.95
2022-11-17T19:06:16.681Z,6.93
2022-11-17T19:08:43.428Z,6.25
2022-11-17T19:11:11.837Z,6.72
2022-11-17T19:13:40.013Z,6.00
2022-11-17T19:16:09.712Z,6.10
2022-11-17T19:18:36.996Z,7.75
2022-11-17T19:21:14.949Z,8.10
2022-11-17T19:23:49.540Z,6.90
2022-11-17T19:26:24.591Z,6.75
2022-11-17T19:28:58.969Z,5.22
2022-11-17T19:31:26.354Z,6.15
2022-11-17T19:33:53.508Z,7.25
2022-11-17T19:36:22.487Z,5.90
2022-11-17T19:38:50.976Z,5.82
2022-11-17T19:41:20.286Z,7.20
2022-11-17T19:43:47.331Z,5.55
2022-11-17T19:46:16.643Z,7.22
2022-11-17T19:48:44.315Z,7.80
2022-11-17T19:51:15.837Z,7.90
2022-11-17T19:53:42.961Z,9.35
2022-11-17T19:56:10.138Z,7.45
2022-11-17T19:58:36.832Z,7.47
2022-11-17T20:01:19.832Z,6.47
2022-11-17T20:03:47.323Z,6.38
2022-11-17T20:06:17.199Z,6.15
2022-11-17T20:08:44.446Z,7.18
2022-11-17T20:11:22.822Z,8.40
2022-11-17T20:13:50.166Z,7.28
2022-11-17T20:16:21.474Z,6.40
2022-11-17T20:18:56.432Z,6.40
2022-11-17T20:21:24.516Z,5.22
2022-11-17T20:23:51.292Z,6.75
2022-11-17T20:26:30.157Z,8.77
2022-11-17T20:28:58.011Z,6.60
2022-11-17T20:31:27.290Z,7.35
2022-11-17T20:33:57.623Z,7.03
2022-11-17T20:36:24.462Z,4.90
2022-11-17T20:38:52.999Z,6.18
2022-11-17T20:41:21.285Z,6.47
2022-11-17T20:43:49.326Z,6.38
2022-11-17T20:46:16.675Z,7.13
2022-11-17T20:48:43.777Z,5.43
2022-11-17T20:51:13.190Z,5.75
2022-11-17T20:53:41.385Z,5.93
2022-11-17T20:56:10.334Z,6.80
2022-11-17T20:58:37.940Z,6.32
2022-11-17T21:01:16.724Z,5.32
2022-11-17T21:03:43.903Z,5.20
2022-11-17T21:06:11.339Z,7.32
2022-11-17T21:08:39.990Z,8.25
2022-11-17T21:11:09.745Z,7.00
2022-11-17T21:13:37.778Z,5.18
2022-11-17T21:16:09.585Z,5.43
2022-11-17T21:18:38.189Z,5.97
2022-11-17T21:21:09.131Z,6.18
2022-11-17T21:23:37.683Z,5.60
2022-11-17T21:26:07.079Z,7.43
2022-11-17T21:28:34.953Z,6.35
2022-11-17T21:31:12.920Z,6.68
2022-11-17T21:33:40.442Z,6.35
2022-11-17T21:36:15.668Z,6.00
2022-11-17T21:38:44.254Z,4.90
2022-11-17T21:41:14.301Z,6.82
2022-11-17T21:43:43.110Z,7.07
2022-11-17T21:46:12.633Z,7.65
2022-11-17T21:48:39.916Z,7.78
2022-11-17T21:51:13.771Z,5.18
2022-11-17T21:53:40.695Z,6.75
2022-11-17T21:56:07.810Z,6.85
2022-11-17T21:58:34.937Z,6.25
2022-11-17T22:01:10.591Z,6.78
2022-11-17T22:03:38.341Z,5.75
2022-11-17T22:06:25.991Z,10.77
2022-11-17T22:08:54.474Z,5.40
2022-11-17T22:11:36.376Z,7.20
2022-11-17T22:14:14.393Z,7.78
2022-11-17T22:16:43.526Z,6.45
2022-11-17T22:19:11.273Z,5.93
2022-11-17T22:21:39.079Z,6.43
2022-11-17T22:24:07.442Z,7.07
2022-11-17T22:26:37.107Z,7.82
2022-11-17T22:29:05.727Z,6.85
2022-11-17T22:31:32.438Z,5.55
2022-11-17T22:33:59.121Z,5.93
2022-11-17T22:36:25.869Z,6.38
2022-11-17T22:38:53.414Z,6.60
2022-11-17T22:41:21.766Z,7.07
2022-11-17T22:43:53.156Z,5.90
2022-11-17T22:46:21.798Z,7.00
2022-11-17T22:48:48.691Z,6.93
2022-11-17T22:51:38.700Z,7.30
2022-11-17T22:54:06.631Z,7.15
2022-11-17T22:56:33.970Z,6.50
2022-11-17T22:59:01.064Z,8.35
2022-11-17T23:01:27.836Z,5.82
2022-11-17T23:03:54.648Z,6.35
2022-11-17T23:06:22.889Z,7.20
2022-11-17T23:08:50.613Z,6.18
2022-11-17T23:14:09.670Z,6.55
2022-11-17T23:16:37.646Z,7.72
2022-11-17T23:19:05.627Z,7.25
2022-11-17T23:21:32.337Z,6.00
2022-11-17T23:23:59.029Z,6.50
2022-11-17T23:26:25.655Z,6.45
2022-11-17T23:28:52.546Z,8.02
2022-11-17T23:31:19.483Z,5.47
2022-11-17T23:33:47.798Z,5.63
2022-11-17T23:36:14.449Z,6.07
2022-11-17T23:38:41.207Z,5.40
2022-11-17T23:41:10.598Z,5.93
2022-11-17T23:43:37.305Z,6.93
2022-11-17T23:46:13.326Z,5.07
2022-11-17T23:48:40.948Z,4.65
2022-11-17T23:51:13.006Z,6.45
2022-11-17T23:53:39.785Z,6.95
2022-11-17T23:56:07.630Z,6.65
2022-11-17T23:58:34.605Z,6.22
